Time;durP1;ratioP1;P1;durP2;ratioP2;P2;SDS_P1;SDS_P2;PMS_P1;PMS_P2;Temp;Humidity;BMP_temperature;BMP_pressure;BME280_temperature;BME280_humidity;BME280_pressure;Samples;Min_cycle;Max_cycle;Signal;HPM_P1;HPM_P2
2021/01/18 00:02:28;;;;;;;34.17;22.27;;;;;;;3.06;63.20;101614.94;5118412;28;20424;-73
2021/01/18 00:04:53;;;;;;;32.27;23.10;;;;;;;3.18;64.00;101615.59;5118333;28;20230;-75
2021/01/18 00:07:19;;;;;;;35.67;24.20;;;;;;;3.39;64.05;101615.88;5118231;28;20429;-70
2021/01/18 00:09:44;;;;;;;33.27;24.27;;;;;;;3.10;63.87;101619.47;5118446;28;20206;-74
2021/01/18 00:12:09;;;;;;;37.03;23.97;;;;;;;3.44;62.47;101621.28;5118303;28;20443;-69
2021/01/18 00:14:35;;;;;;;32.13;22.47;;;;;;;3.30;62.75;101624.03;5118308;28;20552;-70
2021/01/18 00:17:05;;;;;;;36.87;23.37;;;;;;;3.22;64.40;101612.41;5118627;28;20195;-70
2021/01/18 00:19:30;;;;;;;32.73;22.43;;;;;;;3.09;63.94;101605.69;5118242;28;20171;-71
2021/01/18 00:21:55;;;;;;;36.43;23.93;;;;;;;3.27;63.92;101605.78;5118194;28;20417;-72
2021/01/18 00:24:21;;;;;;;35.90;24.33;;;;;;;3.28;63.47;101612.72;5118405;28;20187;-70
2021/01/18 00:26:46;;;;;;;32.30;23.17;;;;;;;2.28;66.89;101612.38;5117984;27;20190;-70
2021/01/18 00:29:12;;;;;;;33.90;25.30;;;;;;;3.00;64.68;101616.41;5117795;28;20544;-70
2021/01/18 00:31:41;;;;;;;36.30;24.73;;;;;;;2.91;65.69;101613.31;5117974;28;20186;-70
2021/01/18 00:34:07;;;;;;;34.03;24.03;;;;;;;3.09;64.84;101613.44;5118053;28;20552;-70
2021/01/18 00:36:32;;;;;;;60.53;33.30;;;;;;;3.24;66.23;101608.22;5117625;28;20417;-69
2021/01/18 00:38:57;;;;;;;35.20;24.60;;;;;;;2.64;67.08;101613.56;5117955;28;20182;-70
2021/01/18 00:41:22;;;;;;;34.53;25.00;;;;;;;2.97;65.41;101612.78;5117687;28;20507;-69
2021/01/18 00:43:48;;;;;;;37.90;26.37;;;;;;;2.77;66.60;101611.66;5116665;28;20206;-70
2021/01/18 00:46:13;;;;;;;39.90;28.60;;;;;;;2.97;66.29;101602.47;5117891;28;20231;-71
2021/01/18 00:48:39;;;;;;;39.63;26.10;;;;;;;3.06;65.06;101605.56;5116606;28;20416;-70
2021/01/18 00:51:04;;;;;;;39.77;27.07;;;;;;;3.40;65.22;101598.72;5116630;28;20170;-70
2021/01/18 00:53:29;;;;;;;36.30;24.57;;;;;;;3.40;64.93;101596.13;5116979;28;20176;-71
2021/01/18 00:55:55;;;;;;;35.10;24.77;;;;;;;2.83;66.38;101600.03;5117301;28;20435;-70
2021/01/18 00:58:20;;;;;;;40.67;25.93;;;;;;;3.14;66.38;101591.38;5117306;28;20317;-70
2021/01/18 01:00:45;;;;;;;40.30;25.47;;;;;;;3.50;66.38;101588.09;5117583;28;20213;-71
2021/01/18 01:03:11;;;;;;;40.30;27.20;;;;;;;3.42;65.43;101591.97;5117170;28;20202;-71
2021/01/18 01:05:36;;;;;;;40.63;27.50;;;;;;;3.21;66.70;101590.03;5117366;28;20292;-70
2021/01/18 01:08:01;;;;;;;36.53;25.70;;;;;;;2.97;67.70;101585.31;5117683;28;20543;-70
2021/01/18 01:10:32;;;;;;;35.93;24.97;;;;;;;3.23;66.63;101590.97;5116453;28;20183;-71
2021/01/18 01:13:05;;;;;;;39.63;27.07;;;;;;;3.33;66.18;101590.66;5117574;28;20214;-71
2021/01/18 01:15:31;;;;;;;39.67;25.60;;;;;;;3.18;67.17;101579.53;5117843;28;20842;-71
2021/01/18 01:17:57;;;;;;;42.97;26.23;;;;;;;3.25;66.68;101583.31;5117428;28;20507;-71
2021/01/18 01:20:23;;;;;;;45.47;28.37;;;;;;;2.96;67.61;101573.22;5117668;28;20746;-71
2021/01/18 01:22:49;;;;;;;45.70;28.67;;;;;;;2.73;68.57;101581.41;5117507;28;20179;-70
2021/01/18 01:25:16;;;;;;;40.93;26.00;;;;;;;3.05;68.33;101578.00;5117666;28;20408;-70
2021/01/18 01:27:42;;;;;;;39.17;25.97;;;;;;;3.12;67.10;101584.38;5117873;28;20230;-70
2021/01/18 01:30:10;;;;;;;42.23;27.57;;;;;;;2.79;68.79;101582.63;5117356;28;20505;-71
2021/01/18 01:32:42;;;;;;;40.23;26.33;;;;;;;3.29;67.44;101577.53;5117315;28;20428;-70
2021/01/18 01:35:09;;;;;;;44.17;28.10;;;;;;;3.39;67.65;101568.59;5117370;28;20432;-70
2021/01/18 01:37:35;;;;;;;40.30;27.47;;;;;;;3.18;68.91;101574.38;5117307;28;20881;-70
2021/01/18 01:40:02;;;;;;;42.33;27.90;;;;;;;3.52;66.78;101569.31;5117562;28;20485;-71
2021/01/18 01:42:28;;;;;;;37.53;26.70;;;;;;;2.90;68.53;101570.34;5117303;28;20423;-71
2021/01/18 01:44:53;;;;;;;41.57;27.40;;;;;;;3.05;67.47;101578.00;5117402;28;20885;-70
2021/01/18 01:47:34;;;;;;;46.53;27.50;;;;;;;3.02;68.34;101580.44;5117657;28;20243;-70
2021/01/18 01:50:02;;;;;;;44.00;27.77;;;;;;;3.24;67.07;101574.72;5116509;28;20176;-70
2021/01/18 01:52:29;;;;;;;42.20;25.80;;;;;;;3.18;68.14;101575.28;5117424;28;20421;-71
2021/01/18 01:54:56;;;;;;;43.90;27.93;;;;;;;2.95;68.05;101576.63;5118777;28;20696;-70
2021/01/18 01:57:21;;;;;;;44.67;29.53;;;;;;;3.29;67.69;101572.38;5121068;28;20464;-73
2021/01/18 01:59:46;;;;;;;42.70;27.40;;;;;;;3.13;67.93;101562.97;5120659;28;20466;-72
2021/01/18 02:02:13;;;;;;;44.30;28.00;;;;;;;3.14;68.79;101567.28;5120904;28;20459;-70
2021/01/18 02:04:38;;;;;;;42.73;28.87;;;;;;;3.34;68.35;101565.78;5120734;28;20250;-71
2021/01/18 02:07:23;;;;;;;45.30;28.37;;;;;;;3.19;68.25;101571.00;5120451;28;20448;-71
2021/01/18 02:09:49;;;;;;;43.70;27.10;;;;;;;3.41;67.38;101562.72;5120660;28;20175;-71
2021/01/18 02:12:15;;;;;;;46.77;29.83;;;;;;;3.29;67.99;101565.53;5120692;28;20502;-71
2021/01/18 02:15:14;;;;;;;45.27;27.93;;;;;;;3.24;68.04;101566.13;5120634;28;20167;-70
2021/01/18 02:18:04;;;;;;;46.87;28.73;;;;;;;3.43;68.40;101558.53;5120655;28;20259;-71
2021/01/18 02:20:36;;;;;;;46.83;28.30;;;;;;;3.17;68.81;101557.16;5120436;28;20815;-70
2021/01/18 02:23:23;;;;;;;46.80;27.73;;;;;;;3.05;68.32;101548.78;5119691;28;20526;-71
2021/01/18 02:25:58;;;;;;;51.10;30.70;;;;;;;2.90;71.18;101548.88;5120457;28;20428;-71
2021/01/18 02:28:31;;;;;;;50.47;30.17;;;;;;;3.11;69.92;101555.16;5119628;28;20420;-70
2021/01/18 02:31:02;;;;;;;58.97;31.33;;;;;;;3.13;70.19;101547.50;5119366;28;20508;-71
2021/01/18 02:33:40;;;;;;;54.70;29.03;;;;;;;3.08;70.34;101546.38;5119538;28;20418;-71
2021/01/18 02:36:05;;;;;;;55.20;30.23;;;;;;;3.16;70.22;101557.97;5120285;28;20409;-70
2021/01/18 02:39:00;;;;;;;55.73;30.20;;;;;;;2.98;71.56;101550.16;5120157;28;20540;-71
2021/01/18 02:41:36;;;;;;;55.57;31.10;;;;;;;3.32;69.58;101546.78;5115543;28;20533;-74
2021/01/18 02:44:05;;;;;;;53.88;32.15;;;;;;;3.34;69.02;101542.56;5114867;28;20459;-71
2021/01/18 02:46:33;;;;;;;55.07;30.83;;;;;;;2.94;71.41;101541.38;5115171;28;20175;-73
2021/01/18 02:49:00;;;;;;;57.30;32.40;;;;;;;3.44;69.55;101536.22;5102196;28;20410;-71
2021/01/18 02:51:27;;;;;;;53.50;31.37;;;;;;;3.28;69.79;101535.41;5119505;28;20879;-71
2021/01/18 02:53:59;;;;;;;53.07;32.00;;;;;;;3.75;69.92;101537.75;5119941;28;20424;-71
2021/01/18 02:56:34;;;;;;;60.90;35.50;;;;;;;3.54;69.10;101541.94;5119810;28;20405;-69
2021/01/18 02:59:00;;;;;;;56.13;29.07;;;;;;;3.37;70.24;101551.38;5120113;28;20436;-68
2021/01/18 03:01:50;;;;;;;59.03;31.53;;;;;;;3.39;70.12;101554.00;5119585;28;20437;-68
2021/01/18 03:04:32;;;;;;;59.87;32.07;;;;;;;3.53;70.30;101552.13;5098479;28;20913;-70
2021/01/18 03:07:01;;;;;;;54.90;30.00;;;;;;;3.70;69.65;101546.16;5098250;28;20406;-70
2021/01/18 03:09:33;;;;;;;60.10;33.70;;;;;;;3.52;69.16;101542.66;5098317;28;20414;-70
2021/01/18 03:12:03;;;;;;;64.57;31.80;;;;;;;3.40;70.40;101549.72;5115422;28;20418;-70
2021/01/18 03:14:29;;;;;;;53.70;32.10;;;;;;;3.41;69.85;101543.78;5081421;28;20414;-71
2021/01/18 03:16:56;;;;;;;52.90;31.40;;;;;;;3.52;70.42;101550.41;5100201;28;20458;-69
2021/01/18 03:19:40;;;;;;;56.60;31.60;;;;;;;3.47;70.29;101544.97;5098002;28;20497;-68
2021/01/18 03:22:07;;;;;;;60.87;29.67;;;;;;;3.42;70.96;101541.28;5098927;28;20422;-70
2021/01/18 03:24:32;;;;;;;62.53;31.80;;;;;;;3.29;70.72;101542.34;5098922;28;20623;-69
2021/01/18 03:27:04;;;;;;;52.47;32.07;;;;;;;3.50;71.13;101537.41;5099094;28;20487;-69
2021/01/18 03:29:29;;;;;;;56.67;32.10;;;;;;;3.28;70.89;101531.97;5115058;28;20175;-69
2021/01/18 03:31:55;;;;;;;60.40;32.13;;;;;;;3.25;70.81;101545.56;5098722;28;20693;-69
2021/01/18 03:34:20;;;;;;;58.30;32.50;;;;;;;3.48;70.46;101540.75;5115252;28;20184;-69
2021/01/18 03:36:45;;;;;;;64.63;33.27;;;;;;;3.33;71.74;101544.28;5098640;28;20199;-69
2021/01/18 03:39:11;;;;;;;62.97;31.80;;;;;;;3.50;70.25;101541.69;5098694;28;20169;-69
2021/01/18 03:41:36;;;;;;;63.17;32.60;;;;;;;3.39;71.54;101538.56;5098092;28;20160;-69
2021/01/18 03:44:01;;;;;;;57.47;32.20;;;;;;;3.16;72.74;101529.63;5098627;28;20172;-69
2021/01/18 03:46:26;;;;;;;60.00;33.40;;;;;;;2.78;74.28;101537.06;5098485;28;20167;-70
2021/01/18 03:48:52;;;;;;;60.03;31.10;;;;;;;3.02;73.42;101542.66;5098808;28;20168;-69
2021/01/18 03:51:17;;;;;;;57.10;29.47;;;;;;;2.89;74.80;101541.94;5098335;28;20497;-69
2021/01/18 03:53:42;;;;;;;54.63;30.47;;;;;;;3.14;73.53;101528.66;5098301;28;20176;-69
2021/01/18 03:56:08;;;;;;;62.00;30.70;;;;;;;3.15;73.78;101526.19;5098673;28;20159;-68
2021/01/18 03:58:33;;;;;;;74.07;31.53;;;;;;;2.86;74.64;101533.22;5097467;28;20630;-69
2021/01/18 04:00:58;;;;;;;60.07;28.83;;;;;;;2.86;74.78;101529.78;5098088;28;20203;-70
2021/01/18 04:03:25;;;;;;;58.63;29.47;;;;;;;3.10;74.65;101526.72;5098259;28;20215;-69
2021/01/18 04:05:51;;;;;;;64.20;29.30;;;;;;;3.00;74.70;101531.41;5098181;28;20435;-69
2021/01/18 04:08:16;;;;;;;66.30;30.73;;;;;;;2.83;74.45;101533.06;5097662;28;20413;-70
2021/01/18 04:10:41;;;;;;;60.13;27.97;;;;;;;2.88;74.83;101523.00;5097965;28;20200;-69
2021/01/18 04:13:06;;;;;;;55.53;29.50;;;;;;;3.08;74.75;101521.50;5098058;28;20255;-69
2021/01/18 04:15:32;;;;;;;48.17;26.13;;;;;;;3.00;75.81;101525.34;5098352;28;20164;-67
2021/01/18 04:17:57;;;;;;;69.37;36.33;;;;;;;2.64;77.33;101518.31;5098663;28;20604;-70
2021/01/18 04:20:23;;;;;;;51.30;26.33;;;;;;;3.18;74.56;101516.03;5098396;28;20171;-70
2021/01/18 04:22:49;;;;;;;43.37;24.70;;;;;;;3.17;74.76;101510.78;5098281;28;20166;-69
2021/01/18 04:25:16;;;;;;;47.93;25.83;;;;;;;3.18;74.15;101510.88;5097942;28;20172;-68
2021/01/18 04:27:48;;;;;;;42.90;26.57;;;;;;;3.20;73.77;101519.53;5097899;28;20410;-69
2021/01/18 04:30:15;;;;;;;45.87;26.50;;;;;;;2.88;76.47;101517.84;5097972;28;20690;-69
2021/01/18 04:32:40;;;;;;;59.40;23.77;;;;;;;2.62;76.86;101524.19;5103787;28;20432;-69
2021/01/18 04:35:07;;;;;;;48.83;25.93;;;;;;;3.07;75.38;101516.25;5106014;28;20417;-69
2021/01/18 04:37:33;;;;;;;47.90;25.17;;;;;;;3.52;73.55;101515.19;5097893;28;20443;-69
2021/01/18 04:39:59;;;;;;;49.47;24.20;;;;;;;3.32;73.95;101518.44;5097155;28;20528;-69
2021/01/18 04:42:25;;;;;;;42.47;23.20;;;;;;;3.01;76.05;101507.41;5096608;28;20405;-68
2021/01/18 04:44:54;;;;;;;45.30;23.83;;;;;;;3.19;75.73;101504.91;5095316;28;20168;-68
2021/01/18 04:47:22;;;;;;;47.70;23.73;;;;;;;3.24;75.04;101505.16;5095692;28;20436;-69
2021/01/18 04:49:48;;;;;;;46.00;23.13;;;;;;;3.60;74.28;101507.84;5095416;28;20426;-69
2021/01/18 04:52:17;;;;;;;46.13;23.00;;;;;;;3.31;74.25;101507.22;5095601;28;20411;-69
2021/01/18 04:54:47;;;;;;;41.00;20.50;;;;;;;3.18;75.63;101512.53;5096760;28;20202;-69
2021/01/18 04:57:20;;;;;;;53.07;23.90;;;;;;;3.52;74.28;101509.16;5096949;28;20488;-69
2021/01/18 04:59:47;;;;;;;39.37;22.80;;;;;;;3.17;74.25;101515.94;5096553;28;20414;-69
2021/01/18 05:02:20;;;;;;;45.23;22.57;;;;;;;3.16;74.86;101514.16;5097412;28;20888;-69
2021/01/18 05:04:47;;;;;;;39.27;21.90;;;;;;;3.01;75.51;101520.28;5097210;28;20883;-69
2021/01/18 05:07:34;;;;;;;41.63;22.20;;;;;;;3.29;74.70;101516.56;5097351;28;20421;-68
2021/01/18 05:10:11;;;;;;;56.30;24.30;;;;;;;2.96;76.41;101519.13;5097097;28;20390;-69
2021/01/18 05:12:40;;;;;;;62.63;24.83;;;;;;;2.91;75.92;101520.63;5097347;28;20418;-69
2021/01/18 05:15:07;;;;;;;47.63;22.43;;;;;;;3.10;75.49;101517.31;5097213;28;20728;-69
2021/01/18 05:17:46;;;;;;;48.27;23.83;;;;;;;3.30;75.20;101510.63;5097021;28;20818;-68
2021/01/18 05:20:18;;;;;;;51.93;23.67;;;;;;;3.12;75.41;101512.25;5097019;28;20548;-69
2021/01/18 05:22:47;;;;;;;52.37;23.17;;;;;;;3.12;75.91;101504.50;5097150;28;20831;-69
2021/01/18 05:25:13;;;;;;;44.63;23.73;;;;;;;3.17;75.03;101511.66;5097074;28;20652;-69
2021/01/18 05:27:58;;;;;;;49.23;22.67;;;;;;;3.32;74.47;101510.69;5097197;28;20727;-68
2021/01/18 05:30:24;;;;;;;49.53;22.43;;;;;;;3.53;73.57;101500.59;5099506;28;20509;-68
2021/01/18 05:33:07;;;;;;;48.57;24.03;;;;;;;3.45;74.10;101501.88;5101122;28;20410;-68
2021/01/18 05:35:35;;;;;;;44.67;23.90;;;;;;;3.43;74.62;101509.56;5101134;28;20451;-68
2021/01/18 05:38:05;;;;;;;42.53;20.10;;;;;;;3.20;75.64;101501.50;5100015;28;20875;-69
2021/01/18 05:40:35;;;;;;;38.37;21.17;;;;;;;3.15;75.79;101509.81;5100188;28;20461;-68
2021/01/18 05:43:02;;;;;;;49.50;22.10;;;;;;;3.43;74.33;101508.69;5100983;28;20451;-68
2021/01/18 05:45:29;;;;;;;39.13;20.47;;;;;;;3.20;75.93;101496.34;5100995;28;20414;-68
2021/01/18 05:47:54;;;;;;;39.37;22.50;;;;;;;3.30;75.62;101492.59;5100116;28;20691;-68
2021/01/18 05:50:22;;;;;;;45.10;21.33;;;;;;;3.42;74.82;101487.16;5100976;28;20422;-68
2021/01/18 05:52:47;;;;;;;45.90;21.83;;;;;;;3.29;75.29;101490.81;5100726;28;20172;-68
2021/01/18 05:55:30;;;;;;;47.93;21.23;;;;;;;3.63;74.40;101494.22;5100628;28;20418;-69
2021/01/18 05:58:03;;;;;;;42.17;20.93;;;;;;;3.45;75.85;101500.22;5100469;28;20210;-69
2021/01/18 06:00:34;;;;;;;44.67;22.20;;;;;;;3.65;75.87;101498.66;5100413;28;20413;-68
2021/01/18 06:03:01;;;;;;;42.17;21.80;;;;;;;3.68;74.39;101501.38;5100378;28;20512;-68
2021/01/18 06:05:28;;;;;;;44.60;19.90;;;;;;;3.56;74.97;101503.34;5099823;28;20517;-68
2021/01/18 06:07:54;;;;;;;39.83;19.27;;;;;;;3.74;75.65;101503.38;5100757;28;20398;-69
2021/01/18 06:10:31;;;;;;;33.50;18.00;;;;;;;3.62;74.58;101501.06;5099536;28;20410;-69
2021/01/18 06:12:57;;;;;;;41.43;19.53;;;;;;;3.76;74.47;101501.75;5100387;28;20422;-68
2021/01/18 06:15:23;;;;;;;38.47;18.67;;;;;;;3.59;76.68;101495.75;5100291;28;20879;-68
2021/01/18 06:17:50;;;;;;;36.90;18.33;;;;;;;3.52;75.85;101504.88;5099375;28;20527;-69
2021/01/18 06:20:20;;;;;;;33.87;19.90;;;;;;;3.77;75.03;101502.63;5100492;28;20406;-68
2021/01/18 06:22:55;;;;;;;46.77;19.53;;;;;;;4.04;74.02;101503.97;5100015;28;20426;-68
2021/01/18 06:25:22;;;;;;;41.07;19.27;;;;;;;3.53;75.13;101516.94;5100121;28;20414;-69
2021/01/18 06:27:48;;;;;;;46.37;19.43;;;;;;;3.42;76.76;101512.06;5100144;28;20412;-69
2021/01/18 06:30:22;;;;;;;37.43;18.63;;;;;;;3.80;74.61;101511.41;5099892;28;20425;-68
2021/01/18 06:32:52;;;;;;;42.63;19.97;;;;;;;3.49;76.05;101514.13;5099304;28;20517;-68
2021/01/18 06:35:23;;;;;;;39.40;17.63;;;;;;;3.68;75.68;101515.94;5099988;28;20410;-67
2021/01/18 06:37:54;;;;;;;38.33;18.03;;;;;;;3.68;76.19;101527.16;5100170;28;20456;-68
2021/01/18 06:40:26;;;;;;;32.43;17.00;;;;;;;3.68;77.25;101521.09;5099252;28;20439;-69
2021/01/18 06:42:53;;;;;;;44.80;17.63;;;;;;;3.31;78.28;101538.16;5099108;28;20407;-68
2021/01/18 06:45:21;;;;;;;31.97;16.13;;;;;;;3.60;77.17;101538.78;5099720;28;20513;-69
2021/01/18 06:47:46;;;;;;;52.20;18.87;;;;;;;3.57;76.86;101537.72;5099742;28;20867;-69
2021/01/18 06:50:12;;;;;;;45.77;17.37;;;;;;;3.64;76.75;101539.78;5099725;28;20430;-69
2021/01/18 06:52:45;;;;;;;39.80;17.20;;;;;;;3.53;77.19;101532.44;5099550;28;20206;-69
2021/01/18 06:55:11;;;;;;;34.73;15.17;;;;;;;3.51;78.21;101535.72;5099487;28;20168;-69
2021/01/18 06:57:50;;;;;;;34.83;15.87;;;;;;;3.27;78.61;101533.63;5099823;28;20468;-70
2021/01/18 07:00:17;;;;;;;43.67;17.13;;;;;;;3.88;76.65;101535.00;5099465;28;20431;-69
2021/01/18 07:03:00;;;;;;;46.40;20.60;;;;;;;3.92;75.92;101531.75;5099329;28;20406;-71
2021/01/18 07:05:33;;;;;;;48.40;18.83;;;;;;;3.92;75.28;101524.00;5098507;28;20449;-69
2021/01/18 07:08:12;;;;;;;61.03;20.57;;;;;;;3.73;76.84;101527.38;5099541;28;20418;-69
2021/01/18 07:10:40;;;;;;;44.27;19.80;;;;;;;3.86;76.91;101536.63;5098585;28;20414;-68
2021/01/18 07:13:06;;;;;;;49.77;22.00;;;;;;;3.77;77.90;101533.59;5099299;28;20505;-69
2021/01/18 07:15:32;;;;;;;54.30;20.90;;;;;;;3.67;77.09;101543.44;5098424;28;20832;-69
2021/01/18 07:18:04;;;;;;;65.63;20.07;;;;;;;3.61;78.21;101548.25;5098907;28;20215;-69
2021/01/18 07:20:31;;;;;;;62.03;19.30;;;;;;;3.63;77.18;101545.78;5098694;28;20413;-69
2021/01/18 07:23:11;;;;;;;58.70;21.00;;;;;;;3.61;78.26;101548.25;5098986;28;20442;-70
2021/01/18 07:25:38;;;;;;;45.43;17.80;;;;;;;3.98;76.99;101544.09;5098874;28;20418;-69
2021/01/18 07:28:05;;;;;;;46.37;16.60;;;;;;;3.77;76.65;101541.31;5098756;28;20834;-69
2021/01/18 07:30:36;;;;;;;50.77;17.20;;;;;;;3.87;77.52;101540.97;5098769;28;20410;-69
2021/01/18 07:33:15;;;;;;;60.63;18.37;;;;;;;3.91;77.52;101535.16;5099064;28;20417;-69
2021/01/18 07:35:42;;;;;;;54.43;18.80;;;;;;;3.85;76.82;101529.69;5098739;28;20414;-69
2021/01/18 07:38:12;;;;;;;63.97;17.30;;;;;;;4.19;75.90;101526.19;5098548;28;20735;-69
2021/01/18 07:40:37;;;;;;;61.80;23.70;;;;;;;4.33;76.51;101527.72;5098518;28;20468;-69
2021/01/18 07:43:02;;;;;;;43.27;18.10;;;;;;;4.12;76.12;101531.88;5098587;28;20422;-69
2021/01/18 07:45:28;;;;;;;57.53;16.47;;;;;;;4.24;75.99;101524.72;5098773;28;20184;-69
2021/01/18 07:47:56;;;;;;;38.50;16.50;;;;;;;4.49;76.22;101515.53;5098413;28;20435;-70
2021/01/18 07:50:31;;;;;;;59.10;18.30;;;;;;;4.14;76.34;101518.22;5098222;28;20196;-68
2021/01/18 07:53:00;;;;;;;42.23;16.17;;;;;;;3.92;76.47;101515.41;5097835;28;20819;-69
2021/01/18 07:55:25;;;;;;;37.57;15.43;;;;;;;4.21;77.10;101527.16;5097517;28;20414;-68
2021/01/18 07:57:51;;;;;;;57.27;16.47;;;;;;;4.18;77.04;101524.41;5098538;28;20446;-69
2021/01/18 08:00:16;;;;;;;54.47;17.37;;;;;;;4.00;77.65;101525.28;5098116;28;20192;-68
2021/01/18 08:02:42;;;;;;;38.27;17.40;;;;;;;4.18;77.51;101520.16;5098060;28;20264;-69
2021/01/18 08:05:21;;;;;;;33.27;14.57;;;;;;;4.39;75.89;101519.38;5098024;28;20505;-68
2021/01/18 08:08:04;;;;;;;42.27;16.90;;;;;;;4.62;75.38;101517.88;5098103;28;20175;-69
2021/01/18 08:10:52;;;;;;;47.20;17.93;;;;;;;4.45;75.61;101506.78;5098140;28;20398;-69
2021/01/18 08:13:48;;;;;;;34.80;17.50;;;;;;;4.76;74.76;101509.88;5098068;28;20738;-68
2021/01/18 08:16:18;;;;;;;36.53;18.03;;;;;;;4.46;75.81;101505.06;5096455;28;20441;-70
2021/01/18 08:18:57;;;;;;;37.10;17.40;;;;;;;4.51;75.76;101508.75;5097844;28;20466;-69
2021/01/18 08:21:35;;;;;;;36.20;18.23;;;;;;;4.46;75.97;101498.19;5097680;28;20505;-69
2021/01/18 08:24:07;;;;;;;35.53;16.80;;;;;;;4.74;75.08;101496.91;5097752;28;20406;-69
2021/01/18 08:26:54;;;;;;;34.57;17.47;;;;;;;4.62;75.19;101489.47;5080053;28;20418;-69
2021/01/18 08:29:36;;;;;;;30.67;17.00;;;;;;;4.72;74.84;101498.53;5097598;28;20414;-69
2021/01/18 08:32:20;;;;;;;33.40;15.83;;;;;;;4.71;75.58;101497.66;5097683;28;20414;-69
2021/01/18 08:34:47;;;;;;;30.93;16.13;;;;;;;4.81;75.53;101485.16;5097734;28;20452;-70
2021/01/18 08:37:14;;;;;;;27.97;15.73;;;;;;;4.91;75.09;101482.16;5096849;28;21003;-69
2021/01/18 08:39:48;;;;;;;33.60;15.70;;;;;;;5.04;74.28;101478.44;5096826;28;20713;-69
2021/01/18 08:42:24;;;;;;;28.23;15.17;;;;;;;5.03;74.22;101472.38;5096765;28;20818;-70
2021/01/18 08:44:59;;;;;;;32.00;16.00;;;;;;;4.83;74.38;101476.66;5097590;28;20415;-69
2021/01/18 08:47:46;;;;;;;27.87;14.80;;;;;;;4.96;74.68;101464.28;5097526;28;20482;-70
2021/01/18 08:50:19;;;;;;;29.53;14.70;;;;;;;4.97;74.57;101464.34;5097221;28;20740;-69
2021/01/18 08:52:44;;;;;;;30.37;14.33;;;;;;;4.84;74.74;101462.94;5097064;28;20438;-68
2021/01/18 08:55:27;;;;;;;24.80;14.80;;;;;;;5.15;74.24;101463.38;5097304;28;20852;-68
2021/01/18 08:57:54;;;;;;;35.87;16.13;;;;;;;5.10;74.17;101459.72;5097192;28;20226;-69
2021/01/18 09:00:20;;;;;;;30.17;15.53;;;;;;;5.23;74.17;101454.25;5096421;28;20414;-70
2021/01/18 09:02:47;;;;;;;30.27;15.30;;;;;;;5.53;73.18;101456.38;5097346;28;20417;-68
2021/01/18 09:05:13;;;;;;;35.77;15.87;;;;;;;5.06;74.51;101464.75;5095687;28;20333;-69
2021/01/18 09:07:42;;;;;;;39.37;16.53;;;;;;;5.00;74.31;101458.44;5097527;28;20824;-70
2021/01/18 09:10:14;;;;;;;38.23;16.77;;;;;;;5.15;74.22;101473.72;5097205;28;20214;-70
2021/01/18 09:12:41;;;;;;;34.40;17.03;;;;;;;5.04;74.47;101466.38;5097284;28;20414;-69
2021/01/18 09:15:08;;;;;;;34.77;16.63;;;;;;;4.75;75.57;101462.53;5096468;28;20796;-69
2021/01/18 09:17:34;;;;;;;35.63;17.27;;;;;;;5.37;74.52;101466.09;5097047;28;20507;-69
2021/01/18 09:20:05;;;;;;;33.47;17.73;;;;;;;5.17;74.61;101472.09;5097365;28;20441;-69
2021/01/18 09:22:32;;;;;;;40.87;19.70;;;;;;;5.30;74.38;101464.03;5097015;28;20414;-69
2021/01/18 09:24:57;;;;;;;37.80;18.80;;;;;;;5.03;75.25;101459.47;5097123;28;20413;-68
2021/01/18 09:27:23;;;;;;;45.13;20.10;;;;;;;5.16;75.12;101462.56;5096786;28;20669;-69
2021/01/18 09:30:03;;;;;;;45.87;20.23;;;;;;;4.73;75.83;101469.31;5096846;28;20172;-69
2021/01/18 09:32:29;;;;;;;48.10;21.90;;;;;;;4.61;76.98;101473.91;5097041;28;20818;-69
2021/01/18 09:35:07;;;;;;;40.63;18.97;;;;;;;5.01;76.00;101465.38;5097052;28;20410;-68
2021/01/18 09:37:32;;;;;;;47.67;21.37;;;;;;;4.98;75.83;101463.53;5096826;28;20304;-69
2021/01/18 09:39:58;;;;;;;42.60;19.27;;;;;;;4.95;76.24;101466.00;5096786;28;20495;-68
2021/01/18 09:42:25;;;;;;;44.53;20.30;;;;;;;5.12;75.28;101465.84;5096939;28;20491;-68
2021/01/18 09:44:51;;;;;;;39.70;19.53;;;;;;;5.34;75.83;101454.72;5097387;28;20156;-68
2021/01/18 09:47:17;;;;;;;42.43;20.40;;;;;;;5.31;74.79;101459.78;5096992;28;20421;-68
2021/01/18 09:49:43;;;;;;;44.53;20.77;;;;;;;5.33;74.08;101453.84;5096612;28;20434;-69
2021/01/18 09:52:08;;;;;;;49.00;23.70;;;;;;;5.18;74.97;101453.16;5097273;28;20541;-69
2021/01/18 09:54:38;;;;;;;40.33;20.80;;;;;;;5.57;73.00;101453.09;5096881;28;20255;-69
2021/01/18 09:57:09;;;;;;;44.50;21.40;;;;;;;6.02;71.81;101450.66;5096823;28;20655;-69
2021/01/18 09:59:35;;;;;;;34.00;19.73;;;;;;;5.50;73.65;101446.78;5096643;28;20803;-69
2021/01/18 10:02:01;;;;;;;42.00;21.57;;;;;;;5.62;73.43;101451.59;5096916;28;20683;-69
2021/01/18 10:04:29;;;;;;;43.40;21.33;;;;;;;5.97;72.67;101449.53;5078979;28;20549;-69
2021/01/18 10:07:14;;;;;;;37.77;20.93;;;;;;;5.83;72.91;101445.50;5095986;28;20288;-69
2021/01/18 10:09:40;;;;;;;46.43;20.90;;;;;;;5.83;72.83;101440.34;5097002;28;20433;-70
2021/01/18 10:12:06;;;;;;;46.80;24.90;;;;;;;5.63;73.66;101442.09;5095906;28;20410;-69
2021/01/18 10:14:31;;;;;;;39.57;19.53;;;;;;;5.76;72.71;101433.16;5095947;28;20868;-69
2021/01/18 10:17:15;;;;;;;37.63;20.47;;;;;;;5.46;73.87;101425.91;5100012;28;20605;-69
2021/01/18 10:19:41;;;;;;;35.70;19.43;;;;;;;5.17;75.10;101423.88;5100196;28;20176;-69
2021/01/18 10:22:18;;;;;;;39.37;19.77;;;;;;;5.71;74.45;101415.75;5100301;28;20413;-69
2021/01/18 10:24:54;;;;;;;44.73;21.30;;;;;;;5.61;73.74;101417.91;5100282;28;20748;-69
2021/01/18 10:27:24;;;;;;;31.37;17.40;;;;;;;5.64;74.04;101403.41;5100373;28;20842;-69
2021/01/18 10:29:49;;;;;;;34.93;18.53;;;;;;;6.02;72.72;101395.41;5099360;28;20882;-69
2021/01/18 10:32:15;;;;;;;33.83;16.50;;;;;;;6.12;72.28;101400.13;5099980;28;20513;-69
2021/01/18 10:34:40;;;;;;;31.20;18.37;;;;;;;5.83;72.93;101384.31;5099604;28;20168;-68
2021/01/18 10:37:13;;;;;;;31.53;17.30;;;;;;;5.88;73.03;101387.06;5100663;28;20245;-69
2021/01/18 10:39:40;;;;;;;27.20;16.90;;;;;;;6.11;72.36;101376.75;5099776;28;20168;-69
2021/01/18 10:42:06;;;;;;;25.47;16.03;;;;;;;6.12;72.33;101378.53;5104391;28;20458;-70
2021/01/18 10:44:54;;;;;;;22.10;16.03;;;;;;;5.99;72.42;101374.59;5119891;28;20879;-69
2021/01/18 10:47:25;;;;;;;25.73;16.00;;;;;;;5.56;73.63;101372.03;5120086;28;20656;-69
2021/01/18 10:49:52;;;;;;;24.40;16.37;;;;;;;5.77;73.05;101359.91;5118875;28;20440;-69
2021/01/18 10:52:17;;;;;;;23.93;16.53;;;;;;;5.94;73.25;101345.00;5119996;28;20516;-69
2021/01/18 10:54:57;;;;;;;23.43;14.70;;;;;;;5.82;73.40;101356.66;5120359;28;20857;-70
2021/01/18 10:57:23;;;;;;;24.53;15.93;;;;;;;6.13;71.85;101349.22;5119997;28;20599;-71
2021/01/18 11:00:14;;;;;;;26.53;16.03;;;;;;;6.32;71.09;101341.31;5119717;28;20416;-72
2021/01/18 11:02:41;;;;;;;24.40;16.20;;;;;;;5.99;72.04;101334.03;5119867;28;20203;-71
2021/01/18 11:05:08;;;;;;;21.90;15.80;;;;;;;6.16;72.13;101331.22;5119737;28;20461;-70
2021/01/18 11:07:34;;;;;;;22.60;15.90;;;;;;;5.70;73.05;101338.97;5119640;28;20471;-71
2021/01/18 11:10:00;;;;;;;20.87;15.10;;;;;;;5.87;73.38;101330.97;5119575;28;20422;-71
2021/01/18 11:12:36;;;;;;;28.13;16.00;;;;;;;5.58;73.01;101330.72;5119780;28;20454;-70
2021/01/18 11:15:03;;;;;;;25.27;16.23;;;;;;;6.00;73.28;101325.47;5119468;27;20183;-70
2021/01/18 11:17:29;;;;;;;23.40;15.87;;;;;;;5.91;73.72;101327.66;5119210;27;20525;-69
2021/01/18 11:19:55;;;;;;;24.67;16.93;;;;;;;5.80;74.15;101327.25;5118391;28;20703;-71
2021/01/18 11:22:20;;;;;;;26.27;16.00;;;;;;;6.06;72.13;101325.69;5119697;28;20179;-70
2021/01/18 11:24:46;;;;;;;28.23;16.83;;;;;;;5.74;73.94;101314.09;5118725;28;20175;-71
2021/01/18 11:27:12;;;;;;;20.33;15.30;;;;;;;5.96;72.89;101318.38;5117676;28;20216;-71
2021/01/18 11:29:37;;;;;;;27.87;18.03;;;;;;;5.79;74.00;101314.25;5119127;28;20521;-71